createdAt,value
2024-02-29T00:01:38.643Z,1008.43
2024-02-29T00:06:38.469Z,1008.44
2024-02-29T00:11:38.376Z,1008.56
2024-02-29T00:16:38.315Z,1008.47
2024-02-29T00:21:40.758Z,1008.41
2024-02-29T00:26:38.179Z,1008.30
2024-02-29T00:31:38.117Z,1008.21
2024-02-29T00:36:38.094Z,1008.24
2024-02-29T00:41:38.044Z,1008.18
2024-02-29T00:46:38.228Z,1008.17
2024-02-29T00:51:37.899Z,1008.10
2024-02-29T00:56:37.803Z,1008.00
2024-02-29T01:01:37.870Z,1008.06
2024-02-29T01:06:37.695Z,1008.10
2024-02-29T01:11:37.613Z,1007.90
2024-02-29T01:16:37.559Z,1007.97
2024-02-29T01:21:37.614Z,1007.78
2024-02-29T01:26:37.420Z,1007.70
2024-02-29T01:31:37.370Z,1007.74
2024-02-29T01:36:37.328Z,1007.63
2024-02-29T01:41:37.225Z,1007.62
2024-02-29T01:46:37.167Z,1007.65
2024-02-29T01:51:37.097Z,1007.42
2024-02-29T01:56:37.080Z,1007.36
2024-02-29T02:01:37.126Z,1007.33
2024-02-29T02:06:36.904Z,1007.25
2024-02-29T02:11:36.824Z,1007.21
2024-02-29T02:16:36.863Z,1007.19
2024-02-29T02:21:36.760Z,1007.16
2024-02-29T02:26:36.629Z,1007.18
2024-02-29T02:31:36.606Z,1007.16
2024-02-29T02:36:36.621Z,1007.11
2024-02-29T02:41:36.447Z,1007.12
2024-02-29T02:46:36.379Z,1007.08
2024-02-29T02:51:36.372Z,1007.04
2024-02-29T02:56:36.257Z,1007.01
2024-02-29T03:01:36.223Z,1006.94
2024-02-29T03:06:36.142Z,1006.93
2024-02-29T03:11:36.056Z,1006.88
2024-02-29T03:16:36.008Z,1006.89
2024-02-29T03:21:35.958Z,1006.90
2024-02-29T03:26:36.163Z,1006.91
2024-02-29T03:31:35.835Z,1006.81
2024-02-29T03:36:35.780Z,1006.80
2024-02-29T03:41:35.682Z,1006.81
2024-02-29T03:46:36.092Z,1006.77
2024-02-29T03:51:35.596Z,1006.91
2024-02-29T03:56:35.521Z,1006.87
2024-02-29T04:01:35.595Z,1006.72
2024-02-29T04:06:35.393Z,1006.79
2024-02-29T04:11:35.315Z,1006.76
2024-02-29T04:16:35.225Z,1006.69
2024-02-29T04:21:35.201Z,1006.60
2024-02-29T04:26:35.130Z,1006.56
2024-02-29T04:31:35.120Z,1006.51
2024-02-29T04:36:35.029Z,1006.54
2024-02-29T04:41:34.921Z,1006.44
2024-02-29T04:46:35.488Z,1006.40
2024-02-29T04:51:34.876Z,1006.38
2024-02-29T04:56:34.724Z,1006.53
2024-02-29T05:01:34.841Z,1006.40
2024-02-29T05:06:34.739Z,1006.54
2024-02-29T05:11:35.638Z,1006.41
2024-02-29T05:16:35.487Z,1006.48
2024-02-29T05:21:34.427Z,1006.53
2024-02-29T05:26:34.339Z,1006.50
2024-02-29T05:31:34.309Z,1006.33
2024-02-29T05:36:34.265Z,1006.32
2024-02-29T05:41:34.161Z,1006.25
2024-02-29T05:46:34.152Z,1006.31
2024-02-29T05:51:34.094Z,1006.31
2024-02-29T05:56:33.976Z,1006.30
2024-02-29T06:01:34.045Z,1006.27
2024-02-29T06:06:34.025Z,1006.33
2024-02-29T06:11:33.819Z,1006.42
2024-02-29T06:16:33.718Z,1006.34
2024-02-29T06:21:33.665Z,1006.30
2024-02-29T06:26:33.572Z,1006.38
2024-02-29T06:31:33.545Z,1006.33
2024-02-29T06:36:33.417Z,1006.37
2024-02-29T06:41:33.369Z,1006.37
2024-02-29T06:46:33.366Z,1006.22
2024-02-29T06:51:33.387Z,1006.25
2024-02-29T06:56:33.183Z,1006.07
2024-02-29T07:01:33.208Z,1006.09
2024-02-29T07:06:33.118Z,1006.03
2024-02-29T07:11:33.048Z,1005.99
2024-02-29T07:16:32.912Z,1005.91
2024-02-29T07:21:32.845Z,1005.98
2024-02-29T07:26:32.866Z,1005.89
2024-02-29T07:31:32.730Z,1005.97
2024-02-29T07:36:32.700Z,1005.93
2024-02-29T07:41:32.660Z,1005.88
2024-02-29T07:46:32.571Z,1005.88
2024-02-29T07:51:32.496Z,1005.83
2024-02-29T07:56:32.755Z,1005.76
2024-02-29T08:01:32.457Z,1005.72
2024-02-29T08:06:32.329Z,1005.63
2024-02-29T08:11:32.231Z,1005.66
2024-02-29T08:16:32.165Z,1005.48
2024-02-29T08:21:32.131Z,1005.49
2024-02-29T08:26:32.064Z,1005.51
2024-02-29T08:31:31.975Z,1005.39
2024-02-29T08:36:31.878Z,1005.38
2024-02-29T08:41:31.875Z,1005.17
2024-02-29T08:46:31.808Z,1005.18
2024-02-29T08:51:31.717Z,1004.95
2024-02-29T08:56:31.670Z,1004.96
2024-02-29T09:01:31.746Z,1004.96
2024-02-29T09:06:40.850Z,1004.93
2024-02-29T09:11:32.504Z,1004.80
2024-02-29T09:16:31.394Z,1004.84
2024-02-29T09:21:31.310Z,1004.84
2024-02-29T09:26:31.244Z,1004.67
2024-02-29T09:31:31.156Z,1004.58
2024-02-29T09:36:31.092Z,1004.57
2024-02-29T09:41:50.081Z,1004.54
2024-02-29T09:46:31.960Z,1004.54
2024-02-29T09:51:30.967Z,1004.34
2024-02-29T09:56:30.815Z,1004.28
2024-02-29T10:01:30.819Z,1004.29
2024-02-29T10:06:30.722Z,1004.22
2024-02-29T10:11:30.789Z,1004.10
2024-02-29T10:16:30.640Z,1004.04
2024-02-29T10:21:30.521Z,1003.96
2024-02-29T10:26:30.396Z,1003.80
2024-02-29T10:31:30.351Z,1003.81
2024-02-29T10:36:30.292Z,1003.74
2024-02-29T10:41:30.236Z,1003.73
2024-02-29T10:46:30.158Z,1003.60
2024-02-29T10:51:30.093Z,1003.46
2024-02-29T10:56:30.092Z,1003.37
2024-02-29T11:01:30.089Z,1003.35
2024-02-29T11:06:29.897Z,1003.27
2024-02-29T11:11:29.869Z,1003.21
2024-02-29T11:16:29.933Z,1003.11
2024-02-29T11:21:29.831Z,1003.10
2024-02-29T11:26:29.632Z,1002.94
2024-02-29T11:31:44.654Z,1002.98
2024-02-29T11:36:29.516Z,1002.81
2024-02-29T11:41:29.428Z,1002.77
2024-02-29T11:46:29.412Z,1002.63
2024-02-29T11:51:29.327Z,1002.62
2024-02-29T11:56:29.264Z,1002.57
2024-02-29T12:01:29.221Z,1002.56
2024-02-29T12:06:29.098Z,1002.42
2024-02-29T12:11:29.141Z,1002.36
2024-02-29T12:16:29.044Z,1002.31
2024-02-29T12:21:28.920Z,1002.25
2024-02-29T12:26:28.830Z,1002.25
2024-02-29T12:31:28.857Z,1002.05
2024-02-29T12:36:28.753Z,1001.98
2024-02-29T12:41:28.652Z,1002.05
2024-02-29T12:46:28.719Z,1001.95
2024-02-29T12:51:28.588Z,1001.86
2024-02-29T12:56:28.456Z,1001.86
2024-02-29T13:01:28.624Z,1001.75
2024-02-29T13:06:28.336Z,1001.67
2024-02-29T13:11:28.356Z,1001.56
2024-02-29T13:16:28.297Z,1001.55
2024-02-29T13:21:28.132Z,1001.53
2024-02-29T13:26:28.083Z,1001.46
2024-02-29T13:31:28.044Z,1001.44
2024-02-29T13:36:27.935Z,1001.34
2024-02-29T13:41:27.858Z,1001.23
2024-02-29T13:46:27.870Z,1001.10
2024-02-29T13:51:27.843Z,1001.05
2024-02-29T13:56:27.641Z,1001.03
2024-02-29T14:01:27.670Z,1000.98
2024-02-29T14:06:27.529Z,1000.88
2024-02-29T14:11:27.646Z,1000.85
2024-02-29T14:16:27.419Z,1000.79
2024-02-29T14:21:27.329Z,1000.63
2024-02-29T14:26:27.314Z,1000.58
2024-02-29T14:31:27.293Z,1000.47
2024-02-29T14:36:27.138Z,1000.46
2024-02-29T14:41:27.103Z,1000.42
2024-02-29T14:46:27.133Z,1000.42
2024-02-29T14:51:26.960Z,1000.31
2024-02-29T14:56:26.914Z,1000.30
2024-02-29T15:01:26.894Z,1000.21
2024-02-29T15:06:26.782Z,1000.04
2024-02-29T15:11:27.730Z,1000.07
2024-02-29T15:16:26.669Z,1000.01
2024-02-29T15:21:26.530Z,1000.13
2024-02-29T15:26:26.538Z,1000.01
2024-02-29T15:31:26.469Z,1000.03
2024-02-29T15:36:26.333Z,999.94
2024-02-29T15:41:26.312Z,999.90
2024-02-29T15:46:26.331Z,999.93
2024-02-29T15:51:26.204Z,999.90
2024-02-29T15:56:26.111Z,999.70
2024-02-29T16:01:26.100Z,999.61
2024-02-29T16:06:25.974Z,999.52
2024-02-29T16:11:25.948Z,999.55
2024-02-29T16:16:25.945Z,999.44
2024-02-29T16:21:25.783Z,999.39
2024-02-29T16:26:25.692Z,999.42
2024-02-29T16:31:25.748Z,999.39
2024-02-29T16:36:25.537Z,999.42
2024-02-29T16:41:26.699Z,999.34
2024-02-29T16:46:25.511Z,999.31
2024-02-29T16:51:25.378Z,999.22
2024-02-29T16:56:25.292Z,999.11
2024-02-29T17:01:25.320Z,999.21
2024-02-29T17:06:25.176Z,999.16
2024-02-29T17:11:25.142Z,999.14
2024-02-29T17:16:25.094Z,998.99
2024-02-29T17:21:24.987Z,998.95
2024-02-29T17:26:24.920Z,998.95
2024-02-29T17:31:24.871Z,998.89
2024-02-29T17:36:24.744Z,998.88
2024-02-29T17:41:24.706Z,998.74
2024-02-29T17:46:24.681Z,998.58
2024-02-29T17:51:24.636Z,998.52
2024-02-29T17:56:24.542Z,998.33
2024-02-29T18:01:24.594Z,998.36
2024-02-29T18:06:24.406Z,998.11
2024-02-29T18:11:24.349Z,998.17
2024-02-29T18:16:24.302Z,998.09
2024-02-29T18:21:24.248Z,997.99
2024-02-29T18:26:24.121Z,997.83
2024-02-29T18:31:24.074Z,997.75
2024-02-29T18:36:24.001Z,997.88
2024-02-29T18:41:23.950Z,997.71
2024-02-29T18:46:23.972Z,997.65
2024-02-29T18:51:23.812Z,997.73
2024-02-29T18:56:23.750Z,997.57
2024-02-29T19:01:23.784Z,997.54
2024-02-29T19:06:23.630Z,997.45
2024-02-29T19:11:23.637Z,997.41
2024-02-29T19:16:23.578Z,997.35
2024-02-29T19:21:23.557Z,997.12
2024-02-29T19:26:23.355Z,997.17
2024-02-29T19:31:23.352Z,997.12
2024-02-29T19:36:26.799Z,997.03
2024-02-29T19:41:23.185Z,997.01
2024-02-29T19:46:23.092Z,996.92
2024-02-29T19:51:22.982Z,996.93
2024-02-29T19:56:22.932Z,996.74
2024-02-29T20:01:22.958Z,996.72
2024-02-29T20:06:22.807Z,996.70
2024-02-29T20:11:23.697Z,996.58
2024-02-29T20:16:22.806Z,996.51
2024-02-29T20:21:22.614Z,996.38
2024-02-29T20:26:22.559Z,996.40
2024-02-29T20:31:22.772Z,996.36
2024-02-29T20:36:22.421Z,996.24
2024-02-29T20:41:22.313Z,996.20
2024-02-29T20:46:22.348Z,996.10
2024-02-29T20:51:22.200Z,996.08
2024-02-29T20:56:22.157Z,996.10
2024-02-29T21:01:22.175Z,995.90
2024-02-29T21:06:22.035Z,995.85
2024-02-29T21:11:21.998Z,995.78
2024-02-29T21:16:21.934Z,995.67
2024-02-29T21:21:21.815Z,995.64
2024-02-29T21:26:21.720Z,995.59
2024-02-29T21:31:21.789Z,995.50
2024-02-29T21:36:21.627Z,995.46
2024-02-29T21:41:21.573Z,995.44
2024-02-29T21:46:21.578Z,995.37
2024-02-29T21:51:21.471Z,995.43
2024-02-29T21:56:21.375Z,995.29
2024-02-29T22:01:21.379Z,995.25
2024-02-29T22:06:21.260Z,995.29
2024-02-29T22:11:21.230Z,995.23
2024-02-29T22:16:21.124Z,995.12
2024-02-29T22:21:21.027Z,995.06
2024-02-29T22:26:22.174Z,995.00
2024-02-29T22:31:20.923Z,994.99
2024-02-29T22:36:20.835Z,994.79
2024-02-29T22:41:20.842Z,994.81
2024-02-29T22:46:20.817Z,994.63
2024-02-29T22:51:20.632Z,994.61
2024-02-29T22:56:20.584Z,994.64
2024-02-29T23:01:20.612Z,994.60
2024-02-29T23:06:20.453Z,994.53
2024-02-29T23:11:20.439Z,994.46
2024-02-29T23:16:20.335Z,994.45
2024-02-29T23:21:20.348Z,994.28
2024-02-29T23:26:20.176Z,994.33
2024-02-29T23:31:20.162Z,994.27
2024-02-29T23:36:21.133Z,994.21
2024-02-29T23:41:19.976Z,994.14
2024-02-29T23:46:19.960Z,994.07
2024-02-29T23:51:19.921Z,993.95
2024-02-29T23:56:19.805Z,993.93
